Ana Sayfa
METAR-TAF:

METAR-TAF

Havaalanları :

Kuveyt, Kuveyt

Enlem: 29-13N, Boylam: 047-59E, yükseklik: 55 m

Güncel hava durumu gözlemi

Rapor saat 19:00 UTC de 23 dakika önce yapıldı.
Rüzgar güneydoğudan 5 kt
Sıcaklık 13°C
Nem 77%
Basınç 1016 hPa
Görüş mesafesi 10 km veya daha fazla
1500 m altında bulut yok ve kümülonimbus yok

METAR: OKBK 181900Z 14005KT CAVOK 13/09 Q1016 NOSIG

Saat: 22:23 (19:23 UTC)

Tahmin

Rapor saat 04:45 UTC de 14 saat ve 38 dakika önce yapıldı.
Ayın 18'si saat 06 UTC'den ayın 19'si saat 12 UTC'ye kadar geçerli Tahmin
Rüzgar değişken yönden 3 kt
Görüş mesafesi: 7000 m
Açık gökyüzü
Dönüşüyor
ayın 18'si saat 11 UTC'den ayın 18'si saat 13 UTC'ye kadar
Rüzgar güneydoğudan 10 kt

TAF: OKBK 180445Z 1806/1912 VRB03KT 7000 SKC BECMG 1811/1813 13010KT

4.000'den fazla havaalanı için hava durumu gözlemleri ve tahminleri (METAR ve TAF raporları).

Kullanılabilir istasyonlar harita üzerinde sarı ve kırmızı noktalarla gösterilir.

İstasyonun adını görmek için fareyi noktanın üzerinde gezdirin.

Sonrasında hava gözlem ve tahminlerini görmek için tıklayın.

Haritayı değiştirmek için: yaklaştırmak için siyah artı işaretli yeşil düğmeye ve uzaklaştırmak için de eksi işaretli düğmeye hızla tıklayın; bitişik haritalar için yeşil okları kullanın.


METAR-TAF: